Time;durP1;ratioP1;P1;durP2;ratioP2;P2;SDS_P1;SDS_P2;PMS_P1;PMS_P2;Temp;Humidity;BMP_temperature;BMP_pressure;BME280_temperature;BME280_humidity;BME280_pressure;Samples;Min_cycle;Max_cycle;Signal;HPM_P1;HPM_P2
2021/10/05 00:02:25;;;;;;;20.50;5.15;;;;;;;9.76;96.93;101081.81;5018965;28;20053;-61
2021/10/05 00:04:50;;;;;;;22.67;5.32;;;;;;;9.74;97.70;101086.19;5021717;28;20056;-60
2021/10/05 00:07:15;;;;;;;22.25;5.38;;;;;;;9.75;97.67;101085.31;5022140;28;20029;-62
2021/10/05 00:09:41;;;;;;;19.95;4.90;;;;;;;9.69;97.50;101079.97;5021094;28;20050;-63
2021/10/05 00:12:08;;;;;;;19.92;5.00;;;;;;;9.68;97.20;101077.31;5019344;28;20048;-61
2021/10/05 00:14:33;;;;;;;21.25;5.30;;;;;;;9.67;97.40;101081.72;5019037;28;20477;-61
2021/10/05 00:16:59;;;;;;;22.02;5.15;;;;;;;9.71;97.87;101082.63;5017572;28;20045;-63
2021/10/05 00:19:24;;;;;;;21.85;5.50;;;;;;;9.63;97.88;101081.66;5016557;28;20013;-64
2021/10/05 00:21:51;;;;;;;20.80;5.32;;;;;;;9.66;98.24;101079.06;5018463;28;20072;-62
2021/10/05 00:24:16;;;;;;;21.98;5.22;;;;;;;9.60;98.15;101074.59;5019998;28;20022;-61
2021/10/05 00:26:41;;;;;;;23.52;5.28;;;;;;;9.61;98.04;101073.72;5019899;28;20040;-61
2021/10/05 00:29:07;;;;;;;21.23;5.35;;;;;;;9.64;97.80;101071.13;5019830;28;20024;-60
2021/10/05 00:31:32;;;;;;;21.63;5.40;;;;;;;9.65;98.02;101064.94;5019503;28;20497;-62
2021/10/05 00:33:58;;;;;;;20.92;4.90;;;;;;;9.70;97.16;101063.28;5019400;28;20053;-60
2021/10/05 00:36:23;;;;;;;20.95;5.30;;;;;;;9.68;96.99;101051.78;5019798;28;20034;-62
2021/10/05 00:38:48;;;;;;;21.10;4.78;;;;;;;9.72;96.62;101055.38;5020596;28;20074;-61
2021/10/05 00:41:14;;;;;;;22.45;4.88;;;;;;;9.68;96.92;101051.78;5019306;28;20041;-61
2021/10/05 00:43:39;;;;;;;20.45;5.00;;;;;;;9.69;96.99;101034.22;5018970;28;20172;-60
2021/10/05 00:46:04;;;;;;;21.23;5.13;;;;;;;9.69;96.67;101040.38;5019698;28;20508;-61
2021/10/05 00:48:30;;;;;;;20.33;4.78;;;;;;;9.69;97.01;101037.72;5020647;28;20551;-65
2021/10/05 00:50:55;;;;;;;20.33;4.88;;;;;;;9.67;97.06;101025.38;5018109;28;20168;-61
2021/10/05 00:53:21;;;;;;;20.45;4.97;;;;;;;9.64;97.17;101031.53;5021252;28;20034;-63
2021/10/05 00:55:46;;;;;;;20.25;4.93;;;;;;;9.63;97.15;101032.38;5019622;28;20484;-61
2021/10/05 00:58:12;;;;;;;20.95;5.40;;;;;;;9.63;97.57;101024.47;5019276;28;20028;-60
2021/10/05 01:00:37;;;;;;;20.27;5.07;;;;;;;9.60;97.43;101024.44;5022645;28;20487;-61
2021/10/05 01:03:04;;;;;;;25.10;5.60;;;;;;;9.56;98.08;101018.22;5019257;28;20026;-62
2021/10/05 01:05:29;;;;;;;20.90;5.07;;;;;;;9.56;98.09;101015.59;5026250;28;20515;-61
2021/10/05 01:07:55;;;;;;;18.73;4.80;;;;;;;9.55;97.78;101012.94;5021764;28;20030;-61
2021/10/05 01:10:20;;;;;;;19.40;4.80;;;;;;;9.56;98.20;100998.88;5022044;28;20028;-63
2021/10/05 01:12:51;;;;;;;19.70;5.00;;;;;;;9.53;98.35;100997.06;5026039;28;20489;-63
2021/10/05 01:15:18;;;;;;;20.85;4.90;;;;;;;9.53;98.35;100997.06;5022809;28;20034;-61
2021/10/05 01:17:44;;;;;;;21.52;4.93;;;;;;;9.52;98.33;100997.06;5021827;28;20048;-61
2021/10/05 01:20:10;;;;;;;19.80;4.90;;;;;;;9.53;98.37;100994.44;5019774;28;20481;-62
2021/10/05 01:22:37;;;;;;;20.90;4.82;;;;;;;9.48;98.89;100993.53;5024584;28;20030;-62
2021/10/05 01:25:11;;;;;;;23.73;5.28;;;;;;;9.47;99.18;100993.50;5017283;28;20080;-61
2021/10/05 01:27:45;;;;;;;18.63;4.78;;;;;;;9.46;99.74;100987.31;5023664;28;20069;-63
2021/10/05 01:30:11;;;;;;;22.05;5.32;;;;;;;9.47;99.68;100985.59;5013015;28;20084;-60
2021/10/05 01:32:36;;;;;;;21.67;4.80;;;;;;;9.47;99.36;100973.28;5019147;28;20037;-61
2021/10/05 01:35:03;;;;;;;19.48;4.68;;;;;;;9.53;98.64;100968.06;5018958;28;20066;-62
2021/10/05 01:37:28;;;;;;;19.70;5.10;;;;;;;9.56;99.06;100964.56;5019696;28;21359;-60
2021/10/05 01:39:53;;;;;;;17.77;4.70;;;;;;;9.55;98.52;100975.97;5019255;28;20021;-62
2021/10/05 01:42:19;;;;;;;20.50;5.05;;;;;;;9.56;98.71;100970.72;5016438;28;20025;-63
2021/10/05 01:44:44;;;;;;;21.08;5.07;;;;;;;9.52;98.69;100971.59;5019514;28;20503;-63
2021/10/05 01:47:10;;;;;;;21.15;4.97;;;;;;;9.53;99.09;100962.78;5018124;28;20050;-62
2021/10/05 01:49:36;;;;;;;19.13;4.70;;;;;;;9.43;99.87;100960.91;5020727;28;20465;-61
2021/10/05 01:52:03;;;;;;;20.10;4.90;;;;;;;9.45;100.00;100963.56;5019676;28;20026;-62
2021/10/05 01:54:28;;;;;;;20.77;4.82;;;;;;;9.42;100.00;100954.75;5017865;28;20033;-61
2021/10/05 01:56:53;;;;;;;20.10;4.85;;;;;;;9.40;100.00;100945.91;5017527;28;20021;-60
2021/10/05 01:59:19;;;;;;;19.35;4.72;;;;;;;9.44;100.00;100944.22;5019262;28;20022;-61
2021/10/05 02:01:44;;;;;;;19.05;4.55;;;;;;;9.45;100.00;100946.00;5016646;28;20037;-60
2021/10/05 02:04:10;;;;;;;19.60;4.97;;;;;;;9.41;100.00;100934.50;5017490;28;20415;-63
2021/10/05 02:06:37;;;;;;;20.65;4.88;;;;;;;9.46;100.00;100925.75;5018649;28;20048;-61
2021/10/05 02:09:04;;;;;;;21.88;5.10;;;;;;;9.52;100.00;100931.09;5015494;28;20030;-60
2021/10/05 02:11:29;;;;;;;18.85;4.97;;;;;;;9.53;100.00;100920.53;5018475;28;20041;-62
2021/10/05 02:13:55;;;;;;;20.77;4.82;;;;;;;9.54;100.00;100918.81;5015647;28;20033;-61
2021/10/05 02:16:20;;;;;;;19.50;4.93;;;;;;;9.54;100.00;100917.06;5021387;28;20026;-63
2021/10/05 02:18:48;;;;;;;20.92;4.75;;;;;;;9.51;100.00;100905.56;5016482;28;20393;-61
2021/10/05 02:21:15;;;;;;;18.73;4.70;;;;;;;9.49;100.00;100902.03;5016971;28;20026;-62
2021/10/05 02:26:25;;;;;;;16.55;4.60;;;;;;;9.37;100.00;100898.41;5015765;28;20029;-62
2021/10/05 02:28:51;;;;;;;17.70;5.07;;;;;;;9.37;100.00;100894.88;5016510;28;20030;-61
2021/10/05 02:31:16;;;;;;;19.17;4.78;;;;;;;9.37;100.00;100887.84;5019989;28;20091;-60
2021/10/05 02:33:41;;;;;;;21.13;4.60;;;;;;;9.36;100.00;100883.47;5017125;28;20029;-61
2021/10/05 02:36:07;;;;;;;18.40;4.78;;;;;;;9.36;100.00;100878.19;5020944;28;20116;-62
2021/10/05 02:38:32;;;;;;;17.55;5.00;;;;;;;9.40;100.00;100873.81;5017105;28;20465;-61
2021/10/05 02:40:58;;;;;;;18.35;4.95;;;;;;;9.42;100.00;100872.06;5016377;28;20028;-62
2021/10/05 02:43:23;;;;;;;17.63;4.68;;;;;;;9.45;100.00;100868.56;5017515;28;20032;-61
2021/10/05 02:45:48;;;;;;;18.92;4.82;;;;;;;9.46;100.00;100859.78;5022390;28;20064;-62
2021/10/05 02:48:13;;;;;;;18.60;4.65;;;;;;;9.47;100.00;100851.88;5023235;28;20053;-62
2021/10/05 02:50:39;;;;;;;19.35;4.60;;;;;;;9.52;100.00;100855.47;5016353;28;20105;-60
2021/10/05 02:53:04;;;;;;;17.92;4.93;;;;;;;9.57;100.00;100852.84;5019554;28;20042;-62
2021/10/05 02:55:29;;;;;;;19.38;4.65;;;;;;;9.56;100.00;100851.97;5023598;28;20030;-62
2021/10/05 02:57:55;;;;;;;17.90;4.30;;;;;;;9.57;100.00;100847.59;5022357;28;20526;-62
2021/10/05 03:00:20;;;;;;;18.73;4.38;;;;;;;9.62;100.00;100840.56;5023221;28;20022;-62
2021/10/05 03:02:45;;;;;;;17.85;4.68;;;;;;;9.64;100.00;100845.84;5020759;28;20392;-61
2021/10/05 03:05:11;;;;;;;19.50;4.63;;;;;;;9.61;100.00;100833.53;5017920;28;20026;-63
2021/10/05 03:07:37;;;;;;;15.98;4.20;;;;;;;9.62;100.00;100830.00;5022685;28;20029;-62
2021/10/05 03:10:03;;;;;;;17.83;4.63;;;;;;;9.67;100.00;100832.69;5016297;28;20030;-60
2021/10/05 03:12:28;;;;;;;19.13;4.60;;;;;;;9.65;100.00;100827.38;5019789;28;20061;-62
2021/10/05 03:14:53;;;;;;;18.83;4.60;;;;;;;9.68;100.00;100822.13;5021727;28;20072;-63
2021/10/05 03:17:19;;;;;;;17.70;4.60;;;;;;;9.68;99.89;100810.69;5021782;28;20033;-61
2021/10/05 03:19:44;;;;;;;17.83;4.63;;;;;;;9.66;100.00;100805.41;5020810;28;20025;-63
2021/10/05 03:22:10;;;;;;;19.15;4.50;;;;;;;9.63;100.00;100809.81;5022091;28;20076;-62
2021/10/05 03:24:35;;;;;;;19.27;4.75;;;;;;;9.63;100.00;100805.41;5024173;28;20030;-62
2021/10/05 03:27:00;;;;;;;18.02;4.43;;;;;;;9.60;100.00;100793.06;5022968;28;20033;-61
2021/10/05 03:29:26;;;;;;;18.00;4.60;;;;;;;9.59;100.00;100790.41;5022807;28;20040;-61
2021/10/05 03:31:51;;;;;;;19.25;4.38;;;;;;;9.54;100.00;100784.22;5018906;28;20029;-61
2021/10/05 03:34:16;;;;;;;20.52;5.00;;;;;;;9.51;100.00;100793.00;5022712;28;20033;-61
2021/10/05 03:36:41;;;;;;;20.20;4.40;;;;;;;9.53;100.00;100787.72;5020595;28;20030;-60
2021/10/05 03:39:07;;;;;;;16.17;4.07;;;;;;;9.53;100.00;100785.09;5021231;28;20030;-63
2021/10/05 03:41:32;;;;;;;17.48;4.60;;;;;;;9.53;100.00;100774.53;5022070;28;20051;-62
2021/10/05 03:43:58;;;;;;;15.63;4.18;;;;;;;9.54;100.00;100768.38;5022059;28;20488;-62
2021/10/05 03:46:24;;;;;;;17.23;4.50;;;;;;;9.55;100.00;100770.13;5020261;28;20045;-61
2021/10/05 03:48:49;;;;;;;17.05;4.43;;;;;;;9.54;100.00;100763.13;5022016;28;20049;-62
2021/10/05 03:51:15;;;;;;;19.45;4.45;;;;;;;9.52;100.00;100762.19;5020768;28;20087;-62
2021/10/05 03:53:40;;;;;;;17.38;4.35;;;;;;;9.54;100.00;100758.72;5021719;28;20029;-63
2021/10/05 03:56:06;;;;;;;17.50;4.35;;;;;;;9.54;100.00;100753.44;5025667;28;20100;-62
2021/10/05 03:58:31;;;;;;;16.67;4.30;;;;;;;9.55;100.00;100754.31;5018300;28;20477;-61
2021/10/05 04:00:56;;;;;;;18.60;4.70;;;;;;;9.51;100.00;100747.22;5022312;28;20041;-62
2021/10/05 04:03:23;;;;;;;17.63;4.40;;;;;;;9.48;100.00;100745.47;5021151;28;20038;-61
2021/10/05 04:05:52;;;;;;;17.42;4.50;;;;;;;9.42;100.00;100741.03;5024614;28;20032;-61
2021/10/05 04:08:18;;;;;;;18.10;4.72;;;;;;;9.43;100.00;100739.25;5024747;28;20052;-61
2021/10/05 04:10:43;;;;;;;19.00;4.70;;;;;;;9.42;100.00;100738.41;5020044;28;20440;-62
2021/10/05 04:13:09;;;;;;;18.75;4.50;;;;;;;9.40;100.00;100720.78;5025801;28;20030;-61
2021/10/05 04:15:35;;;;;;;18.00;4.55;;;;;;;9.37;100.00;100729.53;5020219;28;20536;-62
2021/10/05 04:18:00;;;;;;;19.23;4.80;;;;;;;9.37;100.00;100719.00;5025717;28;20492;-62
2021/10/05 04:20:26;;;;;;;18.60;4.50;;;;;;;9.35;100.00;100718.13;5019859;28;20034;-62
2021/10/05 04:22:52;;;;;;;18.35;4.93;;;;;;;9.37;100.00;100711.06;5021052;28;20026;-62
2021/10/05 04:25:18;;;;;;;17.67;4.60;;;;;;;9.37;100.00;100713.72;5020119;28;20036;-61
2021/10/05 04:27:43;;;;;;;16.98;4.93;;;;;;;9.37;100.00;100713.72;5021147;28;20022;-61
2021/10/05 04:30:10;;;;;;;21.70;4.90;;;;;;;9.38;100.00;100706.72;5023650;28;20018;-60
2021/10/05 04:32:36;;;;;;;16.98;4.50;;;;;;;9.38;100.00;100704.06;5017567;28;20124;-60
2021/10/05 04:35:02;;;;;;;18.38;4.80;;;;;;;9.35;100.00;100694.38;5023363;28;20108;-65
2021/10/05 04:37:28;;;;;;;18.73;5.25;;;;;;;9.34;100.00;100697.88;5019582;28;20113;-63
2021/10/05 04:39:53;;;;;;;18.92;4.60;;;;;;;9.32;100.00;100690.81;5022690;28;20112;-62
2021/10/05 04:42:18;;;;;;;17.65;4.70;;;;;;;9.38;100.00;100686.47;5022507;28;20128;-61
2021/10/05 04:44:44;;;;;;;18.30;4.78;;;;;;;9.38;100.00;100680.31;5015704;28;20030;-61
2021/10/05 04:47:09;;;;;;;18.08;4.90;;;;;;;9.36;100.00;100679.41;5024328;28;20072;-61
2021/10/05 04:49:34;;;;;;;18.63;4.70;;;;;;;9.36;100.00;100685.59;5019115;28;20030;-62
2021/10/05 04:52:00;;;;;;;19.05;4.97;;;;;;;9.36;100.00;100676.78;5019098;28;20040;-61
2021/10/05 04:54:26;;;;;;;20.73;4.65;;;;;;;9.35;100.00;100675.91;5022796;28;20107;-62
2021/10/05 04:56:52;;;;;;;17.35;4.90;;;;;;;9.35;100.00;100673.25;5020838;28;20026;-62
2021/10/05 04:59:18;;;;;;;18.50;4.95;;;;;;;9.35;100.00;100667.09;5020329;28;20052;-61
2021/10/05 05:01:45;;;;;;;21.20;6.13;;;;;;;9.33;100.00;100666.19;5016549;28;20022;-61
2021/10/05 05:04:10;;;;;;;17.23;4.68;;;;;;;9.35;100.00;100665.34;5021876;28;20022;-61
2021/10/05 05:06:36;;;;;;;18.85;5.00;;;;;;;9.37;100.00;100660.94;5019912;28;20504;-62
2021/10/05 05:09:02;;;;;;;17.90;4.60;;;;;;;9.41;100.00;100649.56;5019443;28;20021;-62
2021/10/05 05:11:28;;;;;;;15.15;4.53;;;;;;;9.47;100.00;100647.84;5018973;28;20033;-61
2021/10/05 05:13:53;;;;;;;19.88;4.70;;;;;;;9.55;100.00;100654.03;5020725;28;20038;-62
2021/10/05 05:16:19;;;;;;;20.65;4.95;;;;;;;9.66;100.00;100651.47;5019445;28;20022;-62
2021/10/05 05:18:44;;;;;;;18.80;4.80;;;;;;;9.75;99.72;100652.34;5016652;28;20022;-62
2021/10/05 05:21:10;;;;;;;18.40;4.60;;;;;;;9.84;98.69;100646.22;5020139;28;20080;-62
2021/10/05 05:23:35;;;;;;;17.17;4.57;;;;;;;9.93;97.30;100642.75;5018785;28;20740;-61
2021/10/05 05:26:00;;;;;;;16.92;4.20;;;;;;;9.98;95.94;100632.22;5020105;28;20018;-62
2021/10/05 05:28:26;;;;;;;19.67;4.50;;;;;;;10.03;95.15;100628.72;5018004;28;20070;-61
2021/10/05 05:30:51;;;;;;;26.08;4.88;;;;;;;9.99;95.49;100629.59;5017369;28;20128;-61
2021/10/05 05:33:16;;;;;;;18.30;4.78;;;;;;;9.93;95.67;100624.28;5019569;28;20061;-61
2021/10/05 05:35:42;;;;;;;17.80;4.30;;;;;;;9.89;96.13;100622.53;5018455;28;20053;-63
2021/10/05 05:38:07;;;;;;;20.15;4.93;;;;;;;9.92;95.32;100619.88;5019449;28;20104;-62
2021/10/05 05:40:32;;;;;;;19.30;5.07;;;;;;;9.87;96.05;100613.69;5020384;28;20046;-62
2021/10/05 05:42:58;;;;;;;18.27;4.60;;;;;;;9.83;96.55;100611.91;5017416;28;20105;-63
2021/10/05 05:45:23;;;;;;;18.38;4.45;;;;;;;9.82;96.20;100599.59;5018586;28;20415;-63
2021/10/05 05:47:50;;;;;;;18.75;4.53;;;;;;;9.84;95.71;100601.34;5017492;28;20038;-64
2021/10/05 05:50:16;;;;;;;18.92;4.43;;;;;;;9.81;96.15;100608.41;5020705;28;20022;-63
2021/10/05 05:52:41;;;;;;;19.80;4.68;;;;;;;9.81;96.19;100605.75;5021417;28;20527;-63
2021/10/05 05:55:08;;;;;;;18.83;4.50;;;;;;;9.79;96.72;100602.25;5019250;28;20038;-64
2021/10/05 05:57:33;;;;;;;18.73;4.45;;;;;;;9.76;96.80;100603.97;5022535;28;20424;-63
2021/10/05 05:59:59;;;;;;;16.90;4.53;;;;;;;9.75;97.68;100599.56;5021611;28;20052;-66
2021/10/05 06:02:24;;;;;;;18.10;4.85;;;;;;;9.73;97.04;100601.31;5022725;28;20372;-63
2021/10/05 06:04:50;;;;;;;16.90;4.60;;;;;;;9.77;96.94;100602.22;5019650;28;20040;-64
2021/10/05 06:07:15;;;;;;;18.92;4.90;;;;;;;9.76;96.94;100603.97;5026161;28;20056;-64
2021/10/05 06:09:40;;;;;;;20.17;5.00;;;;;;;9.72;97.38;100609.25;5021173;28;20057;-63
2021/10/05 06:12:09;;;;;;;17.73;4.85;;;;;;;9.70;97.39;100609.25;5021504;28;20727;-63
2021/10/05 06:14:36;;;;;;;19.80;5.18;;;;;;;9.70;97.67;100601.31;5021832;28;20025;-64
2021/10/05 06:17:04;;;;;;;20.23;4.97;;;;;;;9.72;96.92;100589.00;5017522;28;20028;-64
2021/10/05 06:19:29;;;;;;;28.83;6.95;;;;;;;9.75;97.32;100594.28;5021618;28;20022;-65
2021/10/05 06:21:54;;;;;;;20.02;5.00;;;;;;;9.74;96.55;100587.25;5019160;28;20029;-64
2021/10/05 06:24:20;;;;;;;20.38;4.90;;;;;;;9.70;97.06;100582.84;5019906;28;20120;-63
2021/10/05 06:26:45;;;;;;;20.13;5.00;;;;;;;9.65;97.98;100589.84;5018890;28;20049;-64
2021/10/05 06:29:11;;;;;;;19.08;5.18;;;;;;;9.65;97.76;100584.56;5017367;28;20088;-63
2021/10/05 06:31:37;;;;;;;19.27;5.20;;;;;;;9.64;97.79;100577.56;5020826;28;20495;-64
2021/10/05 06:34:02;;;;;;;21.35;5.70;;;;;;;9.66;97.69;100562.59;5018215;28;20044;-66
2021/10/05 06:36:27;;;;;;;21.20;5.68;;;;;;;9.68;98.51;100560.81;5020714;28;20017;-65
2021/10/05 06:38:53;;;;;;;19.67;5.60;;;;;;;9.72;97.39;100561.72;5017513;28;20444;-64
2021/10/05 06:41:18;;;;;;;18.40;5.55;;;;;;;9.75;97.90;100567.00;5017097;28;20025;-64
2021/10/05 06:43:44;;;;;;;19.17;5.57;;;;;;;9.80;97.16;100559.09;5021090;28;20413;-64
2021/10/05 06:46:09;;;;;;;21.65;5.97;;;;;;;9.82;97.74;100555.59;5015252;28;20042;-64
2021/10/05 06:48:34;;;;;;;20.23;5.72;;;;;;;9.87;97.18;100556.50;5017334;28;20030;-63
2021/10/05 06:51:00;;;;;;;22.15;6.00;;;;;;;9.89;96.76;100556.50;5017573;28;20480;-63
2021/10/05 06:53:25;;;;;;;21.63;6.18;;;;;;;9.92;96.83;100559.16;5015193;28;20038;-65
2021/10/05 06:55:51;;;;;;;22.23;5.95;;;;;;;9.93;97.29;100559.16;5017888;28;20413;-63
2021/10/05 06:58:17;;;;;;;24.48;6.95;;;;;;;10.01;97.04;100560.94;4999386;28;20029;-63
2021/10/05 07:00:42;;;;;;;20.50;5.68;;;;;;;10.02;96.98;100557.41;5022506;28;20125;-63
2021/10/05 07:03:08;;;;;;;21.67;6.25;;;;;;;10.08;95.79;100560.06;5019990;28;20030;-63
2021/10/05 07:05:34;;;;;;;26.48;8.95;;;;;;;10.16;95.43;100549.50;5020768;28;20032;-62
2021/10/05 07:08:05;;;;;;;21.48;5.97;;;;;;;10.18;94.35;100551.28;5021090;28;20022;-61
2021/10/05 07:10:31;;;;;;;21.20;5.93;;;;;;;10.25;95.00;100550.41;5017125;28;20028;-61
2021/10/05 07:12:56;;;;;;;20.00;5.63;;;;;;;10.28;93.65;100545.13;5021332;28;20117;-61
2021/10/05 07:15:21;;;;;;;20.80;5.90;;;;;;;10.34;94.40;100546.94;5021188;28;20029;-61
2021/10/05 07:17:52;;;;;;;20.33;5.55;;;;;;;10.42;92.93;100539.00;5021210;28;20490;-61
2021/10/05 07:20:17;;;;;;;23.67;6.32;;;;;;;10.47;93.07;100547.81;5018758;28;20388;-61
2021/10/05 07:22:42;;;;;;;20.30;5.32;;;;;;;10.55;91.65;100545.16;5018580;28;20495;-74
2021/10/05 07:25:08;;;;;;;21.25;5.40;;;;;;;10.61;92.72;100530.16;5022196;28;20481;-71
2021/10/05 07:27:34;;;;;;;20.40;5.82;;;;;;;10.70;90.78;100529.28;5020593;28;20077;-75
2021/10/05 07:30:02;;;;;;;21.33;5.82;;;;;;;10.73;91.97;100524.00;5020898;28;20105;-70
2021/10/05 07:32:27;;;;;;;21.20;5.65;;;;;;;10.78;91.41;100511.66;5019698;28;20095;-68
2021/10/05 07:34:53;;;;;;;22.13;5.40;;;;;;;10.84;91.45;100516.06;5021637;28;20428;-72
2021/10/05 07:37:18;;;;;;;25.67;6.78;;;;;;;10.95;91.16;100505.44;5022049;28;20036;-63
2021/10/05 07:39:44;;;;;;;22.27;5.55;;;;;;;11.07;90.79;100497.47;5022006;28;20032;-69
2021/10/05 07:42:09;;;;;;;19.35;5.70;;;;;;;11.17;89.44;100503.63;5020855;28;20097;-74
2021/10/05 07:44:34;;;;;;;19.80;5.30;;;;;;;11.23;89.28;100497.44;5020772;28;20022;-74
2021/10/05 07:47:01;;;;;;;20.75;5.30;;;;;;;11.28;89.99;100507.09;5024286;28;20048;-73
2021/10/05 07:49:26;;;;;;;27.40;14.93;;;;;;;11.38;88.60;100493.84;5022028;28;20088;-73
2021/10/05 07:51:52;;;;;;;21.95;5.40;;;;;;;11.43;88.44;100487.66;5024404;28;20469;-74
2021/10/05 07:54:17;;;;;;;21.67;5.22;;;;;;;11.46;88.61;100479.69;5025337;28;20038;-62
2021/10/05 07:56:43;;;;;;;21.98;5.07;;;;;;;11.54;87.07;100474.34;5021885;28;20018;-62
2021/10/05 07:59:08;;;;;;;27.02;7.35;;;;;;;11.62;86.72;100475.19;5025734;28;20045;-63
2021/10/05 08:01:36;;;;;;;19.58;4.70;;;;;;;11.67;87.26;100461.91;5022264;28;20026;-62
2021/10/05 08:04:01;;;;;;;19.63;5.03;;;;;;;11.72;86.33;100467.19;5021877;28;20022;-62
2021/10/05 08:06:27;;;;;;;19.90;5.00;;;;;;;11.75;85.14;100457.47;5025503;28;20487;-62
2021/10/05 08:08:52;;;;;;;17.63;4.80;;;;;;;11.81;85.39;100461.81;5025203;28;20037;-62
2021/10/05 08:11:19;;;;;;;20.58;5.10;;;;;;;11.85;85.47;100450.31;5026206;28;20065;-63
2021/10/05 08:13:44;;;;;;;22.30;5.18;;;;;;;11.91;86.47;100446.75;5018781;28;20036;-64
2021/10/05 08:16:10;;;;;;;21.55;5.32;;;;;;;11.97;85.57;100438.78;5026892;28;20104;-62
2021/10/05 08:18:35;;;;;;;18.90;4.78;;;;;;;12.02;84.77;100443.16;5021876;28;20030;-63
2021/10/05 08:21:01;;;;;;;20.65;4.72;;;;;;;12.06;84.23;100438.72;5019007;28;20491;-63
2021/10/05 08:23:26;;;;;;;21.08;4.53;;;;;;;12.13;83.44;100432.47;5026779;28;20033;-61
2021/10/05 08:25:51;;;;;;;17.63;4.50;;;;;;;12.21;83.22;100425.31;5021002;28;20026;-61
2021/10/05 08:28:17;;;;;;;18.48;4.50;;;;;;;12.30;83.63;100421.72;5024693;28;20396;-61
2021/10/05 08:30:42;;;;;;;20.08;4.70;;;;;;;12.35;83.49;100413.75;5019682;28;20119;-62
2021/10/05 08:33:08;;;;;;;19.65;4.90;;;;;;;12.43;82.69;100401.25;5022478;28;20099;-61
2021/10/05 08:35:34;;;;;;;21.45;4.60;;;;;;;12.55;82.35;100410.84;5023193;28;20061;-61
2021/10/05 08:38:02;;;;;;;20.55;4.80;;;;;;;12.67;82.69;100399.28;5021798;28;20026;-70
2021/10/05 08:40:27;;;;;;;18.27;4.50;;;;;;;12.79;81.83;100398.25;5021915;28;20025;-72
2021/10/05 08:42:53;;;;;;;21.23;4.30;;;;;;;12.87;81.07;100402.56;5019765;28;20036;-68
2021/10/05 08:45:19;;;;;;;20.23;4.55;;;;;;;13.02;81.92;100387.34;5021033;28;20030;-69
2021/10/05 08:47:44;;;;;;;20.70;4.70;;;;;;;13.14;81.87;100386.31;5019192;28;20030;-73
2021/10/05 08:50:10;;;;;;;21.65;5.28;;;;;;;13.24;81.22;100375.53;5019357;28;20456;-73
2021/10/05 08:52:37;;;;;;;18.48;4.13;;;;;;;13.51;80.03;100369.88;5015261;28;20092;-67
2021/10/05 08:55:04;;;;;;;19.92;4.38;;;;;;;13.84;78.48;100376.44;5022757;28;20028;-67
2021/10/05 08:57:30;;;;;;;19.40;4.45;;;;;;;13.89;76.94;100371.94;5018625;28;20037;-62
2021/10/05 08:59:58;;;;;;;20.40;4.82;;;;;;;13.84;76.92;100375.56;5021721;28;20484;-63
2021/10/05 09:02:23;;;;;;;20.55;4.57;;;;;;;13.80;78.06;100366.75;5023141;28;20025;-65
2021/10/05 09:04:55;;;;;;;19.55;4.68;;;;;;;13.98;76.58;100356.72;5020263;28;20060;-64
2021/10/05 09:07:24;;;;;;;18.10;4.85;;;;;;;14.39;76.31;100348.00;5022266;28;21118;-65
2021/10/05 09:09:55;;;;;;;16.95;4.40;;;;;;;15.09;73.20;100349.25;5021970;28;20029;-66
2021/10/05 09:12:25;;;;;;;18.77;4.40;;;;;;;15.30;71.58;100347.88;5020516;28;20116;-62
2021/10/05 09:14:51;;;;;;;20.88;4.45;;;;;;;15.17;71.42;100355.28;5025129;28;20040;-64
2021/10/05 09:17:26;;;;;;;22.45;4.63;;;;;;;15.24;72.19;100346.25;5021968;28;20030;-64
2021/10/05 09:19:53;;;;;;;19.55;4.28;;;;;;;15.20;70.42;100336.56;5020611;28;20064;-65
2021/10/05 09:22:25;;;;;;;21.15;4.18;;;;;;;15.28;71.73;100334.59;5019464;28;20045;-63
2021/10/05 09:24:54;;;;;;;21.87;4.23;;;;;;;15.49;69.68;100337.69;5019758;28;20063;-63
2021/10/05 09:27:20;;;;;;;21.73;4.13;;;;;;;15.61;68.96;100332.06;5023336;28;20273;-63
2021/10/05 09:29:49;;;;;;;19.08;4.00;;;;;;;15.85;67.71;100316.41;5020979;28;20030;-71
2021/10/05 09:32:17;;;;;;;18.90;3.83;;;;;;;16.43;66.57;100319.28;5023507;28;20085;-67
2021/10/05 09:34:55;;;;;;;18.08;4.18;;;;;;;16.92;66.40;100308.13;5019618;28;20124;-69
2021/10/05 09:37:29;;;;;;;20.80;4.20;;;;;;;17.43;63.15;100310.09;5023497;28;20034;-67
2021/10/05 09:40:06;;;;;;;16.75;4.25;;;;;;;17.98;60.76;100296.66;5019528;28;20473;-70
2021/10/05 09:42:36;;;;;;;27.75;4.78;;;;;;;17.90;59.84;100288.94;5021245;28;20017;-64
2021/10/05 09:45:06;;;;;;;17.88;4.07;;;;;;;18.45;58.49;100296.78;5023503;28;20076;-65
2021/10/05 09:47:38;;;;;;;18.20;3.88;;;;;;;18.74;57.00;100281.44;5018953;28;20078;-65
2021/10/05 09:50:30;;;;;;;16.52;3.78;;;;;;;19.07;56.29;100281.06;5014511;28;20037;-64
2021/10/05 09:53:07;;;;;;;18.00;3.70;;;;;;;19.33;54.89;100276.47;5020094;28;20036;-63
2021/10/05 09:55:35;;;;;;;15.40;3.30;;;;;;;19.56;53.66;100280.00;5019821;28;20057;-63
2021/10/05 09:58:01;;;;;;;16.70;3.60;;;;;;;19.74;53.14;100281.88;5020648;28;20045;-63
2021/10/05 10:00:28;;;;;;;17.63;3.60;;;;;;;19.99;52.08;100272.81;5020855;28;20057;-63
2021/10/05 10:02:54;;;;;;;17.13;3.38;;;;;;;20.14;52.05;100282.88;5015672;28;20033;-63
2021/10/05 10:05:25;;;;;;;19.48;3.85;;;;;;;20.42;52.59;100270.91;5019875;28;20030;-63
2021/10/05 10:07:52;;;;;;;16.45;3.50;;;;;;;20.86;49.59;100270.66;5022696;28;20030;-66
2021/10/05 10:10:27;;;;;;;16.45;3.53;;;;;;;21.41;49.88;100277.00;5019842;28;20057;-64
2021/10/05 10:12:56;;;;;;;16.85;3.50;;;;;;;21.55;48.47;100293.34;5017170;28;20030;-65
2021/10/05 10:15:24;;;;;;;17.33;3.53;;;;;;;21.44;49.01;100284.91;5026375;28;20049;-64
2021/10/05 10:17:50;;;;;;;17.65;3.55;;;;;;;21.15;48.16;100275.59;5018426;28;20053;-63
2021/10/05 10:20:24;;;;;;;16.40;3.65;;;;;;;21.13;50.06;100281.03;5021327;28;20054;-65
2021/10/05 10:22:50;;;;;;;17.40;3.55;;;;;;;21.96;47.77;100273.34;5021926;28;20413;-65
2021/10/05 10:25:28;;;;;;;17.40;3.70;;;;;;;21.67;48.19;100289.16;5023814;28;20032;-64
2021/10/05 10:27:57;;;;;;;18.15;3.50;;;;;;;20.55;49.17;100288.19;5015261;28;20022;-64
2021/10/05 10:30:27;;;;;;;17.45;3.63;;;;;;;19.60;52.17;100284.28;5025674;28;20033;-64
2021/10/05 10:32:59;;;;;;;17.60;3.50;;;;;;;19.22;53.92;100282.28;5023034;28;20022;-66
2021/10/05 10:35:25;;;;;;;32.28;4.55;;;;;;;19.04;53.49;100278.50;5023168;28;20034;-64
2021/10/05 10:37:52;;;;;;;16.92;3.83;;;;;;;19.27;53.10;100274.03;5027970;28;20252;-65
2021/10/05 10:40:31;;;;;;;18.23;3.60;;;;;;;19.72;52.24;100288.25;5023926;28;20469;-64
2021/10/05 10:42:56;;;;;;;19.67;3.67;;;;;;;19.01;53.35;100267.06;5021371;28;20050;-64
2021/10/05 10:45:22;;;;;;;18.83;3.45;;;;;;;18.43;55.93;100265.66;5023790;28;20073;-64
2021/10/05 10:47:54;;;;;;;14.90;3.28;;;;;;;18.17;55.05;100274.63;5020745;28;20030;-64
2021/10/05 10:50:20;;;;;;;17.80;3.45;;;;;;;17.77;56.97;100259.03;5022266;28;20476;-63
2021/10/05 10:52:47;;;;;;;13.02;3.20;;;;;;;17.68;57.95;100269.16;5021691;28;20034;-65
2021/10/05 10:55:20;;;;;;;15.60;3.35;;;;;;;17.60;58.11;100264.09;5021139;28;20026;-64
2021/10/05 10:57:55;;;;;;;;;;;;;;;17.58;58.29;100277.50;5021193;28;20384;-63
2021/10/05 11:00:27;;;;;;;17.27;3.30;;;;;;;17.31;60.20;100257.06;5018935;28;19920;-62
2021/10/05 11:02:54;;;;;;;14.50;3.30;;;;;;;17.21;59.86;100256.47;5021807;28;20116;-64
2021/10/05 11:05:24;;;;;;;16.45;3.42;;;;;;;16.97;60.79;100256.34;5022596;28;20064;-63
2021/10/05 11:07:51;;;;;;;20.92;3.42;;;;;;;16.91;61.10;100237.84;5021478;28;20034;-63
2021/10/05 11:10:22;;;;;;;17.35;3.38;;;;;;;16.83;61.69;100247.84;5022757;28;20034;-63
2021/10/05 11:12:50;;;;;;;18.40;4.07;;;;;;;16.85;61.77;100240.69;5022411;28;20065;-64
2021/10/05 11:15:15;;;;;;;16.75;3.15;;;;;;;16.82;61.87;100252.31;5022240;28;20033;-64
2021/10/05 11:17:44;;;;;;;18.33;3.75;;;;;;;16.80;61.51;100245.28;5021296;28;20026;-64
2021/10/05 11:20:10;;;;;;;21.13;3.42;;;;;;;16.70;61.48;100234.00;5021654;28;20018;-64